Time;durP1;ratioP1;P1;durP2;ratioP2;P2;SDS_P1;SDS_P2;PMS_P1;PMS_P2;Temp;Humidity;BMP_temperature;BMP_pressure;BME280_temperature;BME280_humidity;BME280_pressure;Samples;Min_cycle;Max_cycle;Signal;HPM_P1;HPM_P2
2021/01/30 00:01:20;;;;;;;19.87;12.50;;;-0.10;99.90;;;;;;5014396;28;20246;-77
2021/01/30 00:03:49;;;;;;;18.77;11.57;;;-0.10;99.90;;;;;;5016496;28;20200;-75
2021/01/30 00:06:18;;;;;;;17.07;12.03;;;-0.10;99.90;;;;;;5010809;28;20278;-78
2021/01/30 00:08:45;;;;;;;17.40;11.63;;;-0.20;99.90;;;;;;5017200;28;20215;-76
2021/01/30 00:11:11;;;;;;;18.20;12.20;;;-0.20;99.90;;;;;;5005802;28;20250;-76
2021/01/30 00:13:41;;;;;;;20.53;12.87;;;-0.20;99.90;;;;;;5014251;28;20217;-76
2021/01/30 00:16:07;;;;;;;19.50;12.87;;;-0.20;99.90;;;;;;5003292;28;20247;-78
2021/01/30 00:18:34;;;;;;;20.27;12.10;;;-0.20;99.90;;;;;;5016671;28;20334;-77
2021/01/30 00:21:00;;;;;;;22.27;12.63;;;-0.10;99.90;;;;;;5016496;28;20616;-76
2021/01/30 00:23:27;;;;;;;19.47;11.97;;;-0.10;99.90;;;;;;5016431;28;20622;-76
2021/01/30 00:25:53;;;;;;;17.53;11.97;;;-0.10;99.90;;;;;;5015407;28;20262;-77
2021/01/30 00:28:20;;;;;;;19.43;11.93;;;-0.10;99.90;;;;;;5009522;28;20208;-76
2021/01/30 00:30:47;;;;;;;14.47;11.03;;;-0.20;99.90;;;;;;5016281;28;20245;-77
2021/01/30 00:33:14;;;;;;;16.70;11.53;;;-0.10;99.90;;;;;;5009900;28;20609;-76
2021/01/30 00:35:40;;;;;;;21.13;12.30;;;-0.10;99.90;;;;;;5003897;28;20267;-75
2021/01/30 00:38:09;;;;;;;18.70;11.63;;;-0.10;99.90;;;;;;5016454;28;20203;-76
2021/01/30 00:40:37;;;;;;;23.03;12.20;;;-0.20;99.90;;;;;;5016409;28;20211;-76
2021/01/30 00:43:04;;;;;;;17.77;11.87;;;0.00;99.90;;;;;;5015972;28;20215;-77
2021/01/30 00:45:30;;;;;;;18.90;11.27;;;-0.10;99.90;;;;;;5009929;28;20310;-77
2021/01/30 00:47:58;;;;;;;17.63;11.33;;;-0.10;99.90;;;;;;5002108;28;20229;-76
2021/01/30 00:50:25;;;;;;;16.23;11.30;;;-0.10;99.90;;;;;;5012124;28;20218;-75
2021/01/30 00:52:55;;;;;;;17.50;10.70;;;-0.10;99.90;;;;;;5005911;28;20216;-75
2021/01/30 00:55:23;;;;;;;18.77;12.20;;;0.00;99.90;;;;;;5019621;28;20209;-75
2021/01/30 00:57:49;;;;;;;20.33;11.57;;;-0.10;99.90;;;;;;5010723;28;20250;-75
2021/01/30 01:00:18;;;;;;;19.10;11.53;;;-0.20;99.90;;;;;;5017417;28;20212;-74
2021/01/30 01:02:45;;;;;;;17.27;11.83;;;-0.20;99.90;;;;;;5011902;28;20208;-76
2021/01/30 01:05:13;;;;;;;18.93;12.37;;;-0.20;99.90;;;;;;5007044;28;20219;-75
2021/01/30 01:07:41;;;;;;;17.27;11.37;;;-0.10;99.90;;;;;;5017807;28;20306;-76
2021/01/30 01:10:11;;;;;;;20.33;11.73;;;-0.20;99.90;;;;;;5017261;28;20211;-76
2021/01/30 01:12:37;;;;;;;17.47;11.17;;;-0.20;99.90;;;;;;5014178;28;20210;-75
2021/01/30 01:15:07;;;;;;;18.90;11.10;;;-0.20;99.90;;;;;;5003882;28;20242;-77
2021/01/30 01:17:33;;;;;;;18.07;12.27;;;-0.20;99.90;;;;;;5003920;28;20309;-75
2021/01/30 01:20:00;;;;;;;17.43;11.90;;;-0.20;99.90;;;;;;5014478;28;20266;-75
2021/01/30 01:22:30;;;;;;;16.53;12.03;;;-0.20;99.90;;;;;;5015021;28;20211;-75
2021/01/30 01:24:58;;;;;;;19.33;12.93;;;-0.20;99.90;;;;;;5015140;28;20233;-75
2021/01/30 01:27:25;;;;;;;22.63;13.27;;;-0.20;99.90;;;;;;5013411;28;20207;-76
2021/01/30 01:29:51;;;;;;;23.17;13.73;;;-0.20;99.90;;;;;;5014703;28;20212;-75
2021/01/30 01:32:18;;;;;;;21.27;12.70;;;-0.20;99.90;;;;;;5014387;28;20320;-76
2021/01/30 01:34:44;;;;;;;20.73;12.77;;;-0.20;99.90;;;;;;5010348;28;20228;-76
2021/01/30 01:37:11;;;;;;;22.93;13.30;;;-0.20;99.90;;;;;;5005390;28;20304;-75
2021/01/30 01:39:40;;;;;;;19.60;12.07;;;-0.20;99.90;;;;;;5014483;28;20210;-75
2021/01/30 01:42:12;;;;;;;20.20;12.47;;;-0.10;99.90;;;;;;5014429;28;20575;-76
2021/01/30 01:44:38;;;;;;;21.13;13.13;;;-0.20;99.90;;;;;;5011533;28;20226;-76
2021/01/30 01:47:09;;;;;;;19.67;13.00;;;-0.10;99.90;;;;;;5015487;28;20211;-75
2021/01/30 01:49:38;;;;;;;20.93;13.93;;;-0.20;99.90;;;;;;5008523;28;20219;-76
2021/01/30 01:52:11;;;;;;;23.03;12.60;;;-0.20;99.90;;;;;;5008772;28;20607;-76
2021/01/30 01:54:40;;;;;;;20.50;13.17;;;-0.10;99.90;;;;;;5010228;28;20242;-76
2021/01/30 01:57:11;;;;;;;22.03;13.37;;;-0.10;99.90;;;;;;5014778;28;20736;-75
2021/01/30 01:59:44;;;;;;;18.77;12.87;;;-0.10;99.90;;;;;;5005407;28;20211;-75
2021/01/30 02:02:11;;;;;;;19.53;13.37;;;-0.10;99.90;;;;;;5014302;28;20209;-73
2021/01/30 02:04:43;;;;;;;21.90;13.37;;;-0.10;99.90;;;;;;5009686;28;20227;-74
2021/01/30 02:07:10;;;;;;;22.93;14.07;;;-0.20;99.90;;;;;;5000169;28;20215;-72
2021/01/30 02:09:38;;;;;;;19.47;13.27;;;-0.20;99.90;;;;;;5017620;28;20288;-73
2021/01/30 02:12:11;;;;;;;25.53;15.73;;;-0.10;99.90;;;;;;5017582;28;20723;-72
2021/01/30 02:14:41;;;;;;;24.30;14.37;;;-0.10;99.90;;;;;;5017335;28;20311;-73
2021/01/30 02:17:20;;;;;;;20.27;13.20;;;0.00;99.90;;;;;;5007608;28;20219;-72
2021/01/30 02:20:30;;;;;;;21.10;14.07;;;0.00;99.90;;;;;;5010946;28;20235;-73
2021/01/30 02:23:16;;;;;;;21.63;13.73;;;0.10;99.90;;;;;;4988144;28;20570;-71
2021/01/30 02:26:26;;;;;;;20.73;13.63;;;0.00;99.90;;;;;;5006578;28;20223;-73
2021/01/30 02:29:10;;;;;;;21.10;14.13;;;0.00;99.90;;;;;;5016650;28;20572;-73
2021/01/30 02:31:58;;;;;;;24.27;15.07;;;0.00;99.90;;;;;;5017512;28;20214;-73
2021/01/30 02:34:37;;;;;;;24.80;14.57;;;0.00;99.90;;;;;;5004498;28;20656;-74
2021/01/30 02:37:08;;;;;;;25.03;15.73;;;0.00;99.90;;;;;;5013890;28;20207;-73
2021/01/30 02:39:40;;;;;;;24.90;16.07;;;0.00;99.90;;;;;;5017767;28;20215;-74
2021/01/30 02:42:11;;;;;;;26.27;15.00;;;0.10;99.90;;;;;;5016706;28;20211;-72
2021/01/30 02:44:41;;;;;;;25.20;15.63;;;0.10;99.90;;;;;;5006596;28;20303;-74
2021/01/30 02:47:10;;;;;;;25.73;15.27;;;0.10;99.90;;;;;;5016813;28;20266;-72
2021/01/30 02:49:41;;;;;;;25.20;15.67;;;0.10;99.90;;;;;;4999538;28;20208;-74
2021/01/30 02:52:14;;;;;;;28.03;16.03;;;0.00;99.90;;;;;;5000638;28;20215;-74
2021/01/30 02:54:41;;;;;;;25.43;15.83;;;0.00;99.90;;;;;;5017187;28;20285;-73
2021/01/30 02:57:11;;;;;;;25.07;15.20;;;-0.10;99.90;;;;;;5017359;28;20203;-74
2021/01/30 02:59:43;;;;;;;23.53;15.03;;;-0.10;99.90;;;;;;5017707;28;20207;-74
2021/01/30 03:02:10;;;;;;;23.90;15.83;;;0.00;99.90;;;;;;5012387;28;20207;-73
2021/01/30 03:04:37;;;;;;;26.90;16.50;;;0.00;99.90;;;;;;5011866;28;20212;-74
2021/01/30 03:07:36;;;;;;;25.87;15.40;;;0.00;99.90;;;;;;5011428;28;20571;-74
2021/01/30 03:10:09;;;;;;;26.80;15.87;;;-0.10;99.90;;;;;;5012877;28;20219;-73
2021/01/30 03:12:44;;;;;;;29.63;17.67;;;-0.10;99.90;;;;;;5015942;28;20242;-73
2021/01/30 03:15:16;;;;;;;29.97;17.90;;;-0.10;99.90;;;;;;5008302;28;20246;-72
2021/01/30 03:17:45;;;;;;;29.23;17.50;;;-0.10;99.90;;;;;;5015788;28;20231;-73
2021/01/30 03:20:13;;;;;;;30.23;18.13;;;-0.10;99.90;;;;;;5015740;28;20334;-73
2021/01/30 03:22:42;;;;;;;30.67;18.70;;;-0.10;99.90;;;;;;5016417;28;20215;-73
2021/01/30 03:25:11;;;;;;;30.50;17.67;;;-0.10;99.90;;;;;;5007210;28;20228;-72
2021/01/30 03:27:38;;;;;;;26.20;17.23;;;-0.20;99.90;;;;;;5016349;28;20688;-72
2021/01/30 03:30:08;;;;;;;29.33;17.53;;;-0.20;99.90;;;;;;5016606;28;20218;-73
2021/01/30 03:32:35;;;;;;;30.97;16.33;;;-0.20;99.90;;;;;;5003956;28;20206;-74
2021/01/30 03:35:03;;;;;;;28.47;17.73;;;-0.20;99.90;;;;;;5015837;28;20573;-74
2021/01/30 03:37:29;;;;;;;28.67;17.50;;;-0.20;99.90;;;;;;5003587;28;20207;-73
2021/01/30 03:39:57;;;;;;;28.73;17.80;;;-0.20;99.90;;;;;;5016497;28;20215;-73
2021/01/30 03:42:24;;;;;;;31.67;18.93;;;-0.30;99.90;;;;;;5013624;28;20609;-72
2021/01/30 03:44:50;;;;;;;29.93;17.80;;;-0.30;99.90;;;;;;5015529;28;20239;-73
2021/01/30 03:47:17;;;;;;;27.37;17.47;;;-0.30;99.90;;;;;;5016039;28;20289;-74
2021/01/30 03:49:43;;;;;;;32.93;18.10;;;-0.30;99.90;;;;;;5016174;28;20211;-73
2021/01/30 03:52:09;;;;;;;30.20;18.13;;;-0.30;99.90;;;;;;5016497;28;20636;-73
2021/01/30 03:54:36;;;;;;;30.93;18.17;;;-0.30;99.90;;;;;;5011789;28;20218;-72
2021/01/30 03:57:03;;;;;;;29.57;17.80;;;-0.20;99.90;;;;;;5010701;28;20208;-72
2021/01/30 03:59:30;;;;;;;30.33;18.43;;;-0.20;99.90;;;;;;5009213;28;20211;-73
2021/01/30 04:01:56;;;;;;;30.90;18.43;;;-0.20;99.90;;;;;;5015312;28;20630;-73
2021/01/30 04:04:23;;;;;;;29.07;17.40;;;-0.20;99.90;;;;;;5015040;28;20207;-73
2021/01/30 04:06:50;;;;;;;31.67;18.20;;;-0.20;99.90;;;;;;5014873;28;20688;-74
2021/01/30 04:09:18;;;;;;;29.77;18.13;;;-0.20;99.90;;;;;;5013626;28;20213;-72
2021/01/30 04:11:45;;;;;;;29.23;18.73;;;-0.20;99.90;;;;;;5011203;28;20207;-73
2021/01/30 04:14:12;;;;;;;33.10;18.60;;;-0.20;99.90;;;;;;5015160;28;20208;-72
2021/01/30 04:16:39;;;;;;;32.20;18.60;;;-0.20;99.90;;;;;;5014838;28;20586;-72
2021/01/30 04:19:08;;;;;;;31.53;18.57;;;-0.20;99.90;;;;;;5008663;28;20708;-72
2021/01/30 04:21:35;;;;;;;26.93;16.90;;;-0.10;99.90;;;;;;4998915;28;20212;-75
2021/01/30 04:24:02;;;;;;;31.30;18.87;;;-0.20;99.90;;;;;;4998421;28;20275;-75
2021/01/30 04:26:28;;;;;;;30.93;18.97;;;-0.20;99.90;;;;;;5007750;28;20280;-75
2021/01/30 04:28:55;;;;;;;31.23;18.90;;;-0.20;99.90;;;;;;5014605;28;20204;-74
2021/01/30 04:31:22;;;;;;;29.60;18.30;;;-0.20;99.90;;;;;;5005282;28;20676;-73
2021/01/30 04:33:50;;;;;;;35.13;19.37;;;-0.10;99.90;;;;;;5000232;28;20212;-74
2021/01/30 04:36:19;;;;;;;32.83;19.67;;;-0.10;99.90;;;;;;5015848;28;20203;-73
2021/01/30 04:38:46;;;;;;;34.27;19.17;;;-0.20;99.90;;;;;;5015695;28;20238;-73
2021/01/30 04:41:22;;;;;;;34.23;20.23;;;-0.20;99.90;;;;;;5007036;28;20207;-73
2021/01/30 04:43:57;;;;;;;33.07;19.07;;;-0.20;99.90;;;;;;5004041;28;20290;-74
2021/01/30 04:46:35;;;;;;;35.43;19.60;;;-0.20;99.90;;;;;;5007251;28;20600;-72
2021/01/30 04:49:08;;;;;;;35.97;20.30;;;-0.10;99.90;;;;;;5010562;28;20297;-73
2021/01/30 04:51:42;;;;;;;31.33;18.67;;;-0.20;99.90;;;;;;5004381;28;20712;-72
2021/01/30 04:54:28;;;;;;;31.67;19.47;;;-0.10;99.90;;;;;;5011108;28;20728;-72
2021/01/30 04:57:12;;;;;;;34.50;20.23;;;-0.10;99.90;;;;;;5013719;28;20249;-72
2021/01/30 04:59:55;;;;;;;32.23;18.67;;;-0.10;99.90;;;;;;5013786;28;20227;-72
2021/01/30 05:02:34;;;;;;;32.97;18.87;;;0.00;99.90;;;;;;5014788;28;20717;-74
2021/01/30 05:05:04;;;;;;;34.10;19.37;;;-0.10;99.90;;;;;;5012696;28;20683;-76
2021/01/30 05:07:38;;;;;;;31.83;18.80;;;-0.10;99.90;;;;;;5015196;28;20225;-74
2021/01/30 05:10:14;;;;;;;32.33;18.93;;;-0.10;99.90;;;;;;5015029;28;20201;-74
2021/01/30 05:12:44;;;;;;;33.67;20.00;;;0.00;99.90;;;;;;5014680;28;20616;-73
2021/01/30 05:15:16;;;;;;;32.43;18.70;;;0.10;99.90;;;;;;5004796;28;20204;-73
2021/01/30 05:17:53;;;;;;;31.03;18.50;;;0.00;99.90;;;;;;5005461;28;20285;-72
2021/01/30 05:20:21;;;;;;;28.27;17.63;;;0.00;99.90;;;;;;5004392;28;20241;-73
2021/01/30 05:22:48;;;;;;;28.47;16.80;;;0.00;99.90;;;;;;5011932;28;20207;-74
2021/01/30 05:25:19;;;;;;;25.73;16.03;;;0.00;99.90;;;;;;5015042;28;20237;-73
2021/01/30 05:28:02;;;;;;;25.13;16.00;;;0.00;99.90;;;;;;5016416;28;20701;-74
2021/01/30 05:30:38;;;;;;;34.30;17.43;;;0.00;99.90;;;;;;5010190;28;20208;-74
2021/01/30 05:33:27;;;;;;;27.00;17.17;;;0.00;99.90;;;;;;5016970;28;20715;-73
2021/01/30 05:36:02;;;;;;;30.03;17.27;;;-0.10;99.90;;;;;;5016087;28;20204;-73
2021/01/30 05:38:42;;;;;;;28.67;17.57;;;0.00;99.90;;;;;;5011546;28;20210;-73
2021/01/30 05:41:17;;;;;;;29.70;17.33;;;-0.10;99.90;;;;;;5016514;28;20200;-73
2021/01/30 05:43:49;;;;;;;26.77;17.37;;;0.00;99.90;;;;;;5018600;28;20266;-74
2021/01/30 05:46:22;;;;;;;27.77;17.40;;;0.00;99.90;;;;;;5021175;28;20226;-73
2021/01/30 05:48:51;;;;;;;25.83;15.80;;;0.00;99.90;;;;;;5023612;28;20675;-74
2021/01/30 05:51:23;;;;;;;22.70;15.23;;;0.00;99.90;;;;;;5020090;28;20685;-74
2021/01/30 05:53:50;;;;;;;23.33;15.70;;;0.00;99.90;;;;;;5010226;28;20303;-72
2021/01/30 05:56:17;;;;;;;25.90;16.20;;;0.00;99.90;;;;;;5023917;28;20288;-74
2021/01/30 05:58:45;;;;;;;23.33;15.23;;;0.00;99.90;;;;;;5025187;28;20226;-73
2021/01/30 06:01:26;;;;;;;29.33;16.87;;;0.00;99.90;;;;;;5013849;28;20204;-72
2021/01/30 06:03:57;;;;;;;25.10;15.53;;;-0.10;99.90;;;;;;5012060;28;20215;-73
2021/01/30 06:06:27;;;;;;;27.23;15.87;;;-0.10;99.90;;;;;;5023186;28;20247;-72
2021/01/30 06:08:55;;;;;;;30.20;16.50;;;-0.10;99.90;;;;;;5019796;28;20203;-75
2021/01/30 06:11:22;;;;;;;26.87;16.73;;;-0.10;99.90;;;;;;5006045;28;20736;-73
2021/01/30 06:13:54;;;;;;;25.13;16.13;;;-0.10;99.90;;;;;;5017914;28;20204;-72
2021/01/30 06:16:40;;;;;;;22.97;14.43;;;-0.10;99.90;;;;;;5018889;28;20291;-73
2021/01/30 06:19:15;;;;;;;22.87;15.23;;;-0.10;99.90;;;;;;5006339;28;20274;-73
2021/01/30 06:21:42;;;;;;;22.50;14.80;;;-0.10;99.90;;;;;;5015864;28;20677;-72
2021/01/30 06:24:11;;;;;;;25.03;16.33;;;-0.10;99.90;;;;;;5006244;28;20207;-74
2021/01/30 06:26:43;;;;;;;24.77;15.57;;;-0.10;99.90;;;;;;5018154;28;20286;-72
2021/01/30 06:29:27;;;;;;;25.03;14.23;;;0.00;99.90;;;;;;5018053;28;20294;-73
2021/01/30 06:31:55;;;;;;;20.33;14.13;;;0.00;99.90;;;;;;5001666;28;20661;-73
2021/01/30 06:34:29;;;;;;;20.37;12.10;;;0.00;99.90;;;;;;5017554;28;20211;-73
2021/01/30 06:36:57;;;;;;;19.00;12.33;;;0.00;99.90;;;;;;5014792;28;20200;-72
2021/01/30 06:39:28;;;;;;;20.27;12.63;;;0.00;99.90;;;;;;5003575;28;20207;-73
2021/01/30 06:41:57;;;;;;;21.30;12.03;;;0.10;99.90;;;;;;5015415;28;20209;-73
2021/01/30 06:44:27;;;;;;;21.87;13.00;;;0.10;99.90;;;;;;5015939;28;20202;-73
2021/01/30 06:47:16;;;;;;;25.77;14.67;;;0.10;99.90;;;;;;5014454;28;20234;-74
2021/01/30 06:49:45;;;;;;;21.80;13.80;;;0.00;99.90;;;;;;5007310;28;20204;-73
2021/01/30 06:52:16;;;;;;;21.17;14.00;;;0.10;99.90;;;;;;5015024;28;20212;-74
2021/01/30 06:54:43;;;;;;;21.73;13.97;;;0.10;99.90;;;;;;5007559;28;20200;-74
2021/01/30 06:57:14;;;;;;;23.23;14.43;;;0.10;99.90;;;;;;5001612;28;20219;-73
2021/01/30 06:59:52;;;;;;;21.40;14.43;;;0.10;99.90;;;;;;5012866;28;20210;-73
2021/01/30 07:02:23;;;;;;;21.67;14.67;;;0.10;99.90;;;;;;5009006;28;20204;-73
2021/01/30 07:05:16;;;;;;;20.10;12.70;;;0.10;99.90;;;;;;5015839;28;20238;-70
2021/01/30 07:08:18;;;;;;;23.17;13.27;;;0.10;99.90;;;;;;5014870;28;20231;-72
2021/01/30 07:10:53;;;;;;;20.20;12.37;;;0.10;99.90;;;;;;5012952;28;20674;-73
2021/01/30 07:13:39;;;;;;;20.83;13.70;;;0.10;99.90;;;;;;5010084;28;20202;-72
2021/01/30 07:16:16;;;;;;;21.63;13.60;;;0.10;99.90;;;;;;5007675;28;20231;-73
2021/01/30 07:18:52;;;;;;;27.30;13.93;;;0.10;99.90;;;;;;5016237;28;20262;-72
2021/01/30 07:21:24;;;;;;;20.20;13.57;;;0.20;99.90;;;;;;5008845;28;20195;-70
2021/01/30 07:24:07;;;;;;;18.83;12.20;;;0.20;99.90;;;;;;5013234;28;20200;-70
2021/01/30 07:26:38;;;;;;;20.87;12.23;;;0.20;99.90;;;;;;5010645;28;20276;-71
2021/01/30 07:29:10;;;;;;;19.07;12.47;;;0.20;99.90;;;;;;5012558;28;20204;-72
2021/01/30 07:31:42;;;;;;;21.60;13.27;;;0.20;99.90;;;;;;5015496;28;20315;-69
2021/01/30 07:34:16;;;;;;;19.00;12.50;;;0.20;99.90;;;;;;5015449;28;20234;-73
2021/01/30 07:36:51;;;;;;;22.83;13.13;;;0.30;99.90;;;;;;5000552;28;20576;-72
2021/01/30 07:39:31;;;;;;;20.03;13.27;;;0.30;99.90;;;;;;4999304;28;20260;-72
2021/01/30 07:42:02;;;;;;;21.37;13.30;;;0.20;99.90;;;;;;5010926;28;20217;-72
2021/01/30 07:44:34;;;;;;;21.90;14.33;;;0.20;99.90;;;;;;5015148;28;20206;-72
2021/01/30 07:47:10;;;;;;;23.53;14.47;;;0.20;99.90;;;;;;5013716;28;20235;-70
2021/01/30 07:49:39;;;;;;;23.70;13.60;;;0.20;99.90;;;;;;5003925;28;20209;-72
2021/01/30 07:52:10;;;;;;;22.77;14.17;;;0.20;99.90;;;;;;5007941;28;20238;-71
2021/01/30 07:54:45;;;;;;;22.03;14.23;;;0.20;99.90;;;;;;5014946;28;20203;-71
2021/01/30 07:57:56;;;;;;;23.77;13.97;;;0.20;99.90;;;;;;5014899;28;20199;-70
2021/01/30 08:00:30;;;;;;;23.67;14.47;;;0.30;99.90;;;;;;5008235;28;20246;-72
2021/01/30 08:03:21;;;;;;;24.37;14.83;;;0.30;99.90;;;;;;5015838;28;20214;-72
2021/01/30 08:06:09;;;;;;;23.77;15.00;;;0.20;99.90;;;;;;5003816;28;20230;-73
2021/01/30 08:08:41;;;;;;;21.57;14.50;;;0.30;99.90;;;;;;5013353;28;20229;-71
2021/01/30 08:11:20;;;;;;;23.23;15.37;;;0.30;99.90;;;;;;5014793;28;20671;-72
2021/01/30 08:13:56;;;;;;;23.03;14.53;;;0.30;99.90;;;;;;5015384;28;20679;-73
2021/01/30 08:16:33;;;;;;;21.90;14.00;;;0.40;99.90;;;;;;5015254;28;20258;-73
2021/01/30 08:19:05;;;;;;;22.33;14.20;;;0.40;99.90;;;;;;5011801;28;20249;-73
2021/01/30 08:21:38;;;;;;;25.73;16.93;;;0.40;99.90;;;;;;5012424;28;20269;-74
2021/01/30 08:24:27;;;;;;;23.60;16.17;;;0.40;99.90;;;;;;5015472;28;20245;-72
2021/01/30 08:26:59;;;;;;;21.53;14.77;;;0.50;99.90;;;;;;5013457;28;20223;-71
2021/01/30 08:29:32;;;;;;;27.67;17.00;;;0.50;99.90;;;;;;5014548;28;20400;-71
2021/01/30 08:32:15;;;;;;;23.60;14.77;;;0.50;99.90;;;;;;5012655;28;20302;-70
2021/01/30 08:34:41;;;;;;;22.80;15.67;;;0.50;99.90;;;;;;5010222;28;20843;-71
2021/01/30 08:37:36;;;;;;;25.10;16.30;;;0.50;99.90;;;;;;5013173;28;20336;-68
2021/01/30 08:40:12;;;;;;;24.13;16.17;;;0.50;99.90;;;;;;5014107;28;20211;-69
2021/01/30 08:42:54;;;;;;;25.00;16.57;;;0.60;99.90;;;;;;5008753;28;20203;-69
2021/01/30 08:45:26;;;;;;;26.73;16.43;;;0.60;99.90;;;;;;5007977;28;20242;-69
2021/01/30 08:48:23;;;;;;;27.20;16.33;;;0.70;99.90;;;;;;5002802;28;21049;-69
2021/01/30 08:50:53;;;;;;;25.33;15.97;;;0.60;99.90;;;;;;5003728;28;20211;-70
2021/01/30 08:53:30;;;;;;;24.37;15.53;;;0.50;99.90;;;;;;5009657;28;20211;-71
2021/01/30 08:55:59;;;;;;;26.13;16.73;;;0.50;99.90;;;;;;5013276;28;20199;-70
2021/01/30 08:58:48;;;;;;;26.93;16.87;;;0.50;99.90;;;;;;5010773;28;20330;-70
2021/01/30 09:01:48;;;;;;;26.60;16.57;;;0.50;99.90;;;;;;5007551;28;20298;-71
2021/01/30 09:05:00;;;;;;;23.27;15.40;;;0.60;99.90;;;;;;5005828;28;20671;-71
2021/01/30 09:07:51;;;;;;;30.03;15.30;;;0.70;99.90;;;;;;5003466;28;20274;-73
2021/01/30 09:10:39;;;;;;;27.50;16.20;;;0.80;99.90;;;;;;5013836;28;20252;-71
2021/01/30 09:13:11;;;;;;;33.83;17.50;;;0.80;99.90;;;;;;5009132;28;20296;-70
2021/01/30 09:16:10;;;;;;;25.67;16.80;;;0.90;99.90;;;;;;4994505;28;20569;-72
2021/01/30 09:18:49;;;;;;;29.30;17.93;;;1.00;99.90;;;;;;5011128;28;22284;-72
2021/01/30 09:21:28;;;;;;;26.17;16.77;;;1.10;99.90;;;;;;5009096;28;20281;-73
2021/01/30 09:24:14;;;;;;;26.10;17.57;;;1.20;99.90;;;;;;5016258;28;20290;-73
2021/01/30 09:26:51;;;;;;;26.00;16.37;;;1.20;99.90;;;;;;5017619;28;20954;-72
2021/01/30 09:29:23;;;;;;;26.93;17.50;;;1.30;99.90;;;;;;5009679;28;20209;-73
2021/01/30 09:31:56;;;;;;;32.57;17.03;;;1.20;99.90;;;;;;5013324;28;20253;-74
2021/01/30 09:34:27;;;;;;;27.03;18.07;;;1.10;99.90;;;;;;5013659;28;20237;-74
2021/01/30 09:36:54;;;;;;;28.57;17.53;;;1.10;99.90;;;;;;5014978;28;20200;-73
2021/01/30 09:39:23;;;;;;;25.27;16.93;;;1.20;99.90;;;;;;5016376;28;20207;-72
2021/01/30 09:41:50;;;;;;;25.83;16.13;;;1.30;99.90;;;;;;5012421;28;20238;-72
2021/01/30 09:44:22;;;;;;;22.47;14.40;;;1.30;99.90;;;;;;5015337;28;20621;-75
2021/01/30 09:46:52;;;;;;;18.43;12.13;;;1.40;99.90;;;;;;5016053;28;20279;-71
2021/01/30 09:49:22;;;;;;;17.07;11.73;;;1.40;99.90;;;;;;5013014;28;20234;-75
2021/01/30 09:51:49;;;;;;;17.33;11.73;;;1.50;99.90;;;;;;5004084;28;20214;-75
2021/01/30 09:54:18;;;;;;;18.43;12.80;;;1.50;99.90;;;;;;5014050;28;20211;-72
2021/01/30 09:56:46;;;;;;;21.77;13.10;;;1.60;99.90;;;;;;5009280;28;20207;-74
2021/01/30 09:59:15;;;;;;;22.87;13.73;;;1.60;99.90;;;;;;5017690;28;20315;-74
2021/01/30 10:01:44;;;;;;;23.30;12.70;;;1.70;99.90;;;;;;5018064;28;20732;-75
2021/01/30 10:04:15;;;;;;;21.27;12.37;;;1.70;99.90;;;;;;5012303;28;20234;-75
2021/01/30 10:06:44;;;;;;;17.17;11.53;;;1.70;99.90;;;;;;5013424;28;20227;-73
2021/01/30 10:09:14;;;;;;;19.17;11.83;;;1.70;99.90;;;;;;5017416;28;20238;-74
2021/01/30 10:11:43;;;;;;;17.60;11.33;;;1.60;99.90;;;;;;5016967;28;20214;-73
2021/01/30 10:14:10;;;;;;;19.10;11.83;;;1.50;99.90;;;;;;5017260;28;20273;-73
2021/01/30 10:16:37;;;;;;;21.10;12.27;;;1.40;99.90;;;;;;5003580;28;20228;-74
2021/01/30 10:19:11;;;;;;;22.43;13.87;;;1.40;99.90;;;;;;5015605;28;20707;-73
2021/01/30 10:21:42;;;;;;;23.97;13.83;;;1.30;99.90;;;;;;5008586;28;20289;-73
2021/01/30 10:24:13;;;;;;;25.50;14.43;;;1.20;99.90;;;;;;5003057;28;20211;-74
2021/01/30 10:26:40;;;;;;;23.63;14.13;;;1.20;99.90;;;;;;5015952;28;20227;-72
2021/01/30 10:29:10;;;;;;;23.17;14.47;;;1.30;99.90;;;;;;5015782;28;20718;-74
2021/01/30 10:31:39;;;;;;;21.90;13.17;;;1.20;99.90;;;;;;5017225;28;20234;-72
2021/01/30 10:34:18;;;;;;;21.03;13.27;;;1.30;99.90;;;;;;5015365;28;20253;-75
2021/01/30 10:36:52;;;;;;;21.43;13.20;;;1.30;99.90;;;;;;5014442;28;20577;-75
2021/01/30 10:39:19;;;;;;;23.90;13.43;;;1.40;99.90;;;;;;5015213;28;20203;-74
2021/01/30 10:41:46;;;;;;;21.70;13.20;;;1.40;99.90;;;;;;5015104;28;20207;-74
2021/01/30 10:44:23;;;;;;;26.17;14.60;;;1.50;99.90;;;;;;5015503;28;20294;-74
2021/01/30 10:46:56;;;;;;;23.93;14.47;;;1.50;99.90;;;;;;5012402;28;20703;-74
2021/01/30 10:49:25;;;;;;;23.63;13.47;;;1.50;99.90;;;;;;5015223;28;20202;-73
2021/01/30 10:52:04;;;;;;;22.53;14.17;;;1.40;99.90;;;;;;5011988;28;20207;-74
2021/01/30 10:54:31;;;;;;;21.67;13.73;;;1.30;99.90;;;;;;5013169;28;20246;-73
2021/01/30 10:57:10;;;;;;;22.70;14.40;;;1.30;99.90;;;;;;5013656;28;21469;-74
2021/01/30 10:59:56;;;;;;;26.83;15.23;;;1.20;99.90;;;;;;5013568;28;20218;-74
2021/01/30 11:02:39;;;;;;;23.83;13.80;;;1.20;99.90;;;;;;5011848;28;20221;-75
2021/01/30 11:05:27;;;;;;;19.80;13.50;;;1.20;99.90;;;;;;5012146;28;20265;-73
2021/01/30 11:07:57;;;;;;;25.93;15.07;;;1.20;99.90;;;;;;5010895;28;20237;-75
2021/01/30 11:10:47;;;;;;;24.10;14.73;;;1.20;99.90;;;;;;5012903;28;20234;-73
2021/01/30 11:13:25;;;;;;;20.47;13.77;;;1.20;99.90;;;;;;5011179;28;20203;-73
2021/01/30 11:16:06;;;;;;;23.90;13.93;;;1.30;99.90;;;;;;5012091;28;20203;-71
2021/01/30 11:18:38;;;;;;;20.57;13.17;;;1.40;99.90;;;;;;5012984;28;20223;-71
2021/01/30 11:21:08;;;;;;;22.33;14.33;;;1.40;99.90;;;;;;5007756;28;20326;-70
2021/01/30 11:23:46;;;;;;;25.97;14.30;;;1.40;99.90;;;;;;5011073;28;20554;-70
2021/01/30 11:26:34;;;;;;;23.93;14.57;;;1.40;99.90;;;;;;5012747;28;20710;-71
2021/01/30 11:29:02;;;;;;;23.13;13.90;;;1.50;99.90;;;;;;5011813;28;20281;-71
2021/01/30 11:31:28;;;;;;;22.03;13.70;;;1.50;99.90;;;;;;5012132;28;20215;-71
2021/01/30 11:33:56;;;;;;;22.53;13.57;;;1.60;99.90;;;;;;5012551;28;20219;-72
2021/01/30 11:36:23;;;;;;;25.50;14.83;;;1.60;99.90;;;;;;5013297;28;20210;-71
2021/01/30 11:38:56;;;;;;;20.17;14.37;;;1.60;99.90;;;;;;5012940;28;20207;-73
2021/01/30 11:41:23;;;;;;;24.87;14.97;;;1.60;99.90;;;;;;5011047;28;20282;-71
2021/01/30 11:43:49;;;;;;;24.87;14.63;;;1.60;99.90;;;;;;5013742;28;20696;-73
2021/01/30 11:46:16;;;;;;;26.00;15.50;;;1.70;99.90;;;;;;5013727;28;20302;-72
2021/01/30 11:48:43;;;;;;;22.67;15.63;;;1.60;99.90;;;;;;5013775;28;20216;-72
2021/01/30 11:51:19;;;;;;;27.70;15.50;;;1.60;99.90;;;;;;5008301;28;20254;-71
2021/01/30 11:53:46;;;;;;;24.53;16.17;;;1.60;99.90;;;;;;5012160;28;20211;-72
2021/01/30 11:56:12;;;;;;;27.67;17.40;;;1.60;99.90;;;;;;5013019;28;20290;-71
2021/01/30 11:58:39;;;;;;;29.17;17.20;;;1.70;99.90;;;;;;5013373;28;20215;-73
2021/01/30 12:01:06;;;;;;;28.70;17.03;;;1.80;99.90;;;;;;5010843;28;20211;-72
2021/01/30 12:03:32;;;;;;;30.73;18.30;;;1.70;99.90;;;;;;5012700;28;20238;-70
2021/01/30 12:05:59;;;;;;;34.50;18.37;;;1.60;99.90;;;;;;5013199;28;20310;-74
2021/01/30 12:08:27;;;;;;;26.10;16.87;;;1.60;99.90;;;;;;5012370;28;20215;-73
2021/01/30 12:10:55;;;;;;;31.10;18.97;;;1.60;99.90;;;;;;5012070;28;20237;-73
2021/01/30 12:13:21;;;;;;;29.90;17.30;;;1.60;99.90;;;;;;5012952;28;20302;-72
2021/01/30 12:15:48;;;;;;;30.80;18.00;;;1.60;99.90;;;;;;5011305;28;20199;-73
2021/01/30 12:18:16;;;;;;;33.33;18.97;;;1.70;99.90;;;;;;5011852;28;20234;-72
2021/01/30 12:20:44;;;;;;;31.87;19.23;;;1.70;99.90;;;;;;5010514;28;20253;-74
2021/01/30 12:23:12;;;;;;;30.53;19.00;;;1.70;99.90;;;;;;5013288;28;20243;-72
2021/01/30 12:25:38;;;;;;;30.50;18.47;;;1.70;99.90;;;;;;5012778;28;20763;-72
2021/01/30 12:28:07;;;;;;;28.47;17.90;;;1.70;99.90;;;;;;5009314;28;20310;-72
2021/01/30 12:30:36;;;;;;;31.83;18.47;;;1.60;99.90;;;;;;5011898;28;20765;-70
2021/01/30 12:33:03;;;;;;;28.10;16.73;;;1.60;99.90;;;;;;5011207;28;20298;-70
2021/01/30 12:35:32;;;;;;;29.87;17.17;;;1.60;99.90;;;;;;5010069;28;20225;-72
2021/01/30 12:37:59;;;;;;;33.70;17.97;;;1.60;99.90;;;;;;5011171;28;20237;-72
2021/01/30 12:40:28;;;;;;;27.47;17.17;;;1.70;99.90;;;;;;5008327;28;20213;-71
2021/01/30 12:42:54;;;;;;;27.80;16.97;;;1.70;99.90;;;;;;5007438;28;20294;-69
2021/01/30 12:45:22;;;;;;;31.83;17.80;;;1.80;99.90;;;;;;5010515;28;20269;-73
2021/01/30 12:47:48;;;;;;;30.87;17.17;;;1.80;99.90;;;;;;5010914;28;20211;-70
2021/01/30 12:50:17;;;;;;;35.63;18.17;;;1.80;99.90;;;;;;5010871;28;20213;-72
2021/01/30 12:52:44;;;;;;;33.80;17.77;;;1.80;99.90;;;;;;5009560;28;20219;-69
2021/01/30 12:55:12;;;;;;;32.37;18.63;;;1.80;99.90;;;;;;5011210;28;20541;-73
2021/01/30 12:57:38;;;;;;;32.97;19.20;;;1.80;99.90;;;;;;5013148;28;20214;-74
2021/01/30 13:00:07;;;;;;;34.30;19.97;;;1.80;99.90;;;;;;5010928;28;20207;-74